KJNX

Johnston Regional Airport

Smithfield, North Carolina, USA
METAR KJNX 180655Z AUTO 00000KT 10SM -DZ SCT005 BKN014 OVC028 07/07 A3011 RMK AO2
Observed Flight Rules
Feb-18 @ 06:55 UTC (19 minutes ago) Marginal Visual Flight Rules
Wind Visibility Clouds Conditions
Calm 10 miles
  • Scattered at 500' AGL
  • Broken at 1,400' AGL
  • Overcast at 2,800' AGL
  • Light Drizzle
Temperatures Readings
Current 7°C / 45°F
Dewpoint 7°C / 45°F
Humidity 100%
Altimeter 30.11" Hg
Pressure 1020 hPa
Elevation 50
METAR KJNX 180655Z AUTO 00000KT 10SM -DZ SCT005 BKN014 OVC028 07/07 A3011 RMK AO2
Observed Flight Rules
Feb-18 @ 06:55 UTC
(19 minutes ago)
MVFR
Wind Visibility
Calm 10 miles
Clouds
  • Scattered at 500' AGL
  • Broken at 1,400' AGL
  • Overcast at 2,800' AGL
Conditions
  • Light Drizzle
Temperature Dewpoint
7°C / 45°F 7°C / 45°F
Humidity Altimeter Pressure
100% 30.11" Hg 1020 hPa